sensor_id;sensor_type;location;lat;lon;timestamp;P1;durP1;ratioP1;P2;durP2;ratioP2
79401;SDS011;68857;47.916;106.940;2024-01-10T00:01:25;76.07;;;30.05;;
79401;SDS011;68857;47.916;106.940;2024-01-10T00:03:53;68.82;;;26.85;;
79401;SDS011;68857;47.916;106.940;2024-01-10T00:06:19;67.25;;;26.48;;
79401;SDS011;68857;47.916;106.940;2024-01-10T00:08:45;61.53;;;26.02;;
79401;SDS011;68857;47.916;106.940;2024-01-10T00:11:12;64.75;;;26.10;;
79401;SDS011;68857;47.916;106.940;2024-01-10T00:13:38;68.13;;;25.65;;
79401;SDS011;68857;47.916;106.940;2024-01-10T00:16:05;64.30;;;25.70;;
79401;SDS011;68857;47.916;106.940;2024-01-10T00:18:31;62.38;;;25.40;;
79401;SDS011;68857;47.916;106.940;2024-01-10T00:20:58;68.55;;;26.60;;
79401;SDS011;68857;47.916;106.940;2024-01-10T00:23:24;62.40;;;24.55;;
79401;SDS011;68857;47.916;106.940;2024-01-10T00:25:51;64.03;;;25.58;;
79401;SDS011;68857;47.916;106.940;2024-01-10T00:28:17;61.17;;;25.65;;
79401;SDS011;68857;47.916;106.940;2024-01-10T00:30:44;58.08;;;23.27;;
79401;SDS011;68857;47.916;106.940;2024-01-10T00:33:10;64.30;;;25.45;;
79401;SDS011;68857;47.916;106.940;2024-01-10T00:35:36;60.33;;;24.98;;
79401;SDS011;68857;47.916;106.940;2024-01-10T00:38:03;62.53;;;23.45;;
79401;SDS011;68857;47.916;106.940;2024-01-10T00:40:29;60.75;;;23.85;;
79401;SDS011;68857;47.916;106.940;2024-01-10T00:42:56;60.60;;;23.92;;
79401;SDS011;68857;47.916;106.940;2024-01-10T00:45:22;47.05;;;21.92;;
79401;SDS011;68857;47.916;106.940;2024-01-10T00:47:49;53.90;;;23.10;;
79401;SDS011;68857;47.916;106.940;2024-01-10T00:50:15;48.80;;;20.83;;
79401;SDS011;68857;47.916;106.940;2024-01-10T00:52:42;57.13;;;22.15;;
79401;SDS011;68857;47.916;106.940;2024-01-10T00:55:08;51.42;;;19.15;;
79401;SDS011;68857;47.916;106.940;2024-01-10T00:57:35;54.33;;;21.65;;
79401;SDS011;68857;47.916;106.940;2024-01-10T01:00:06;54.17;;;20.83;;
79401;SDS011;68857;47.916;106.940;2024-01-10T01:02:33;47.92;;;18.15;;
79401;SDS011;68857;47.916;106.940;2024-01-10T01:04:59;49.75;;;21.60;;
79401;SDS011;68857;47.916;106.940;2024-01-10T01:07:26;53.58;;;23.40;;
79401;SDS011;68857;47.916;106.940;2024-01-10T01:09:52;60.05;;;23.33;;
79401;SDS011;68857;47.916;106.940;2024-01-10T01:12:18;57.25;;;22.60;;
79401;SDS011;68857;47.916;106.940;2024-01-10T01:14:45;57.00;;;23.02;;
79401;SDS011;68857;47.916;106.940;2024-01-10T01:17:11;58.05;;;24.80;;
79401;SDS011;68857;47.916;106.940;2024-01-10T01:19:37;62.15;;;24.98;;
79401;SDS011;68857;47.916;106.940;2024-01-10T01:22:04;65.70;;;26.73;;
79401;SDS011;68857;47.916;106.940;2024-01-10T01:24:30;64.82;;;26.35;;
79401;SDS011;68857;47.916;106.940;2024-01-10T01:26:57;63.80;;;28.33;;
79401;SDS011;68857;47.916;106.940;2024-01-10T01:29:23;76.28;;;29.42;;
79401;SDS011;68857;47.916;106.940;2024-01-10T01:31:50;77.82;;;29.42;;
79401;SDS011;68857;47.916;106.940;2024-01-10T01:34:17;76.05;;;30.27;;
79401;SDS011;68857;47.916;106.940;2024-01-10T01:36:44;79.43;;;31.88;;
79401;SDS011;68857;47.916;106.940;2024-01-10T01:39:11;85.25;;;34.35;;
79401;SDS011;68857;47.916;106.940;2024-01-10T01:41:38;88.65;;;32.92;;
79401;SDS011;68857;47.916;106.940;2024-01-10T01:44:05;84.20;;;34.55;;
79401;SDS011;68857;47.916;106.940;2024-01-10T01:46:32;87.88;;;35.15;;
79401;SDS011;68857;47.916;106.940;2024-01-10T01:48:58;86.22;;;31.75;;
79401;SDS011;68857;47.916;106.940;2024-01-10T01:51:25;85.05;;;33.60;;
79401;SDS011;68857;47.916;106.940;2024-01-10T01:53:52;84.57;;;34.20;;
79401;SDS011;68857;47.916;106.940;2024-01-10T01:56:19;75.15;;;30.85;;
79401;SDS011;68857;47.916;106.940;2024-01-10T01:58:46;85.03;;;34.80;;
79401;SDS011;68857;47.916;106.940;2024-01-10T02:01:14;81.20;;;34.13;;
79401;SDS011;68857;47.916;106.940;2024-01-10T02:03:41;77.07;;;31.95;;
79401;SDS011;68857;47.916;106.940;2024-01-10T02:06:07;80.63;;;32.28;;
79401;SDS011;68857;47.916;106.940;2024-01-10T02:08:34;83.07;;;31.67;;
79401;SDS011;68857;47.916;106.940;2024-01-10T02:11:01;77.57;;;32.30;;
79401;SDS011;68857;47.916;106.940;2024-01-10T02:13:28;81.80;;;32.78;;
79401;SDS011;68857;47.916;106.940;2024-01-10T02:15:55;76.65;;;30.42;;
79401;SDS011;68857;47.916;106.940;2024-01-10T02:18:21;78.25;;;32.70;;
79401;SDS011;68857;47.916;106.940;2024-01-10T02:20:49;82.68;;;32.25;;
79401;SDS011;68857;47.916;106.940;2024-01-10T02:23:15;80.88;;;34.38;;
79401;SDS011;68857;47.916;106.940;2024-01-10T02:25:42;80.93;;;32.65;;
79401;SDS011;68857;47.916;106.940;2024-01-10T02:28:08;81.05;;;33.85;;
79401;SDS011;68857;47.916;106.940;2024-01-10T02:30:35;84.85;;;31.92;;
79401;SDS011;68857;47.916;106.940;2024-01-10T02:33:01;73.95;;;28.98;;
79401;SDS011;68857;47.916;106.940;2024-01-10T02:35:27;73.32;;;32.53;;
79401;SDS011;68857;47.916;106.940;2024-01-10T02:37:56;74.70;;;31.15;;
79401;SDS011;68857;47.916;106.940;2024-01-10T02:40:22;74.00;;;30.30;;
79401;SDS011;68857;47.916;106.940;2024-01-10T02:42:48;70.00;;;30.98;;
79401;SDS011;68857;47.916;106.940;2024-01-10T02:45:16;74.65;;;30.02;;
79401;SDS011;68857;47.916;106.940;2024-01-10T02:47:43;91.47;;;37.35;;
79401;SDS011;68857;47.916;106.940;2024-01-10T02:50:09;198.73;;;88.63;;
79401;SDS011;68857;47.916;106.940;2024-01-10T02:52:36;249.88;;;107.38;;
79401;SDS011;68857;47.916;106.940;2024-01-10T02:55:02;307.55;;;136.80;;
79401;SDS011;68857;47.916;106.940;2024-01-10T02:57:28;319.95;;;138.23;;
79401;SDS011;68857;47.916;106.940;2024-01-10T02:59:55;301.52;;;127.07;;
79401;SDS011;68857;47.916;106.940;2024-01-10T03:02:21;305.80;;;141.20;;
79401;SDS011;68857;47.916;106.940;2024-01-10T03:04:48;301.88;;;138.88;;
79401;SDS011;68857;47.916;106.940;2024-01-10T03:07:15;272.55;;;120.45;;
79401;SDS011;68857;47.916;106.940;2024-01-10T03:09:41;263.23;;;116.07;;
79401;SDS011;68857;47.916;106.940;2024-01-10T03:12:09;246.50;;;109.90;;
79401;SDS011;68857;47.916;106.940;2024-01-10T03:14:35;227.05;;;99.78;;
79401;SDS011;68857;47.916;106.940;2024-01-10T03:17:02;194.57;;;92.78;;
79401;SDS011;68857;47.916;106.940;2024-01-10T03:19:28;201.68;;;94.85;;
79401;SDS011;68857;47.916;106.940;2024-01-10T03:21:55;200.80;;;85.53;;
79401;SDS011;68857;47.916;106.940;2024-01-10T03:24:21;186.80;;;82.55;;
79401;SDS011;68857;47.916;106.940;2024-01-10T03:26:51;165.70;;;76.78;;
79401;SDS011;68857;47.916;106.940;2024-01-10T03:29:18;176.50;;;84.35;;
79401;SDS011;68857;47.916;106.940;2024-01-10T03:31:44;169.57;;;74.15;;
79401;SDS011;68857;47.916;106.940;2024-01-10T03:34:10;162.50;;;71.97;;
79401;SDS011;68857;47.916;106.940;2024-01-10T03:36:37;158.85;;;72.30;;
79401;SDS011;68857;47.916;106.940;2024-01-10T03:39:03;163.60;;;70.40;;
79401;SDS011;68857;47.916;106.940;2024-01-10T03:41:30;143.73;;;64.95;;
79401;SDS011;68857;47.916;106.940;2024-01-10T03:43:56;140.50;;;60.42;;
79401;SDS011;68857;47.916;106.940;2024-01-10T03:46:22;140.98;;;62.05;;
79401;SDS011;68857;47.916;106.940;2024-01-10T03:48:49;137.77;;;58.45;;
79401;SDS011;68857;47.916;106.940;2024-01-10T03:51:17;139.38;;;59.72;;
79401;SDS011;68857;47.916;106.940;2024-01-10T03:53:44;131.38;;;58.42;;
79401;SDS011;68857;47.916;106.940;2024-01-10T03:56:11;127.20;;;55.28;;
79401;SDS011;68857;47.916;106.940;2024-01-10T03:58:38;129.52;;;55.33;;
79401;SDS011;68857;47.916;106.940;2024-01-10T04:01:05;125.18;;;57.30;;
79401;SDS011;68857;47.916;106.940;2024-01-10T04:03:31;120.80;;;48.22;;
79401;SDS011;68857;47.916;106.940;2024-01-10T04:05:58;123.05;;;51.05;;
79401;SDS011;68857;47.916;106.940;2024-01-10T04:08:24;119.47;;;48.83;;
79401;SDS011;68857;47.916;106.940;2024-01-10T04:10:51;120.95;;;50.50;;
79401;SDS011;68857;47.916;106.940;2024-01-10T04:13:17;116.93;;;49.58;;
79401;SDS011;68857;47.916;106.940;2024-01-10T04:15:44;122.00;;;46.03;;
79401;SDS011;68857;47.916;106.940;2024-01-10T04:18:10;108.22;;;50.50;;
79401;SDS011;68857;47.916;106.940;2024-01-10T04:20:36;122.43;;;52.33;;
79401;SDS011;68857;47.916;106.940;2024-01-10T04:23:03;120.05;;;50.33;;
79401;SDS011;68857;47.916;106.940;2024-01-10T04:25:29;110.55;;;48.42;;
79401;SDS011;68857;47.916;106.940;2024-01-10T04:27:56;119.78;;;53.38;;
79401;SDS011;68857;47.916;106.940;2024-01-10T04:30:22;115.30;;;50.22;;
79401;SDS011;68857;47.916;106.940;2024-01-10T04:32:49;108.90;;;47.60;;
79401;SDS011;68857;47.916;106.940;2024-01-10T04:35:15;111.72;;;48.33;;
79401;SDS011;68857;47.916;106.940;2024-01-10T04:37:42;109.57;;;45.45;;
79401;SDS011;68857;47.916;106.940;2024-01-10T04:40:08;104.47;;;44.08;;
79401;SDS011;68857;47.916;106.940;2024-01-10T04:42:35;100.82;;;44.58;;
79401;SDS011;68857;47.916;106.940;2024-01-10T04:45:01;103.07;;;44.67;;
79401;SDS011;68857;47.916;106.940;2024-01-10T04:47:27;94.35;;;42.58;;
79401;SDS011;68857;47.916;106.940;2024-01-10T04:49:54;94.30;;;37.53;;
79401;SDS011;68857;47.916;106.940;2024-01-10T04:52:20;91.25;;;40.75;;
79401;SDS011;68857;47.916;106.940;2024-01-10T04:54:47;83.82;;;33.80;;
79401;SDS011;68857;47.916;106.940;2024-01-10T04:57:13;82.10;;;35.75;;
79401;SDS011;68857;47.916;106.940;2024-01-10T04:59:39;77.57;;;35.13;;
79401;SDS011;68857;47.916;106.940;2024-01-10T05:02:06;72.97;;;33.67;;
79401;SDS011;68857;47.916;106.940;2024-01-10T05:04:32;71.72;;;29.63;;
79401;SDS011;68857;47.916;106.940;2024-01-10T05:06:58;71.20;;;30.17;;
79401;SDS011;68857;47.916;106.940;2024-01-10T05:09:25;60.88;;;27.42;;
79401;SDS011;68857;47.916;106.940;2024-01-10T05:11:51;62.03;;;26.85;;
79401;SDS011;68857;47.916;106.940;2024-01-10T05:14:18;64.65;;;26.85;;
79401;SDS011;68857;47.916;106.940;2024-01-10T05:16:48;61.33;;;27.60;;
79401;SDS011;68857;47.916;106.940;2024-01-10T05:19:14;60.55;;;27.80;;
79401;SDS011;68857;47.916;106.940;2024-01-10T05:21:40;63.08;;;25.88;;
79401;SDS011;68857;47.916;106.940;2024-01-10T05:24:07;50.58;;;21.80;;
79401;SDS011;68857;47.916;106.940;2024-01-10T05:26:33;54.28;;;23.63;;
79401;SDS011;68857;47.916;106.940;2024-01-10T05:29:00;55.15;;;24.60;;
79401;SDS011;68857;47.916;106.940;2024-01-10T05:31:27;53.75;;;21.65;;
79401;SDS011;68857;47.916;106.940;2024-01-10T05:33:54;52.08;;;21.25;;
79401;SDS011;68857;47.916;106.940;2024-01-10T05:36:23;51.63;;;20.77;;
79401;SDS011;68857;47.916;106.940;2024-01-10T05:38:50;52.47;;;20.17;;
79401;SDS011;68857;47.916;106.940;2024-01-10T05:41:17;48.22;;;18.88;;
79401;SDS011;68857;47.916;106.940;2024-01-10T05:43:43;41.22;;;18.55;;
79401;SDS011;68857;47.916;106.940;2024-01-10T05:46:10;42.28;;;18.55;;
79401;SDS011;68857;47.916;106.940;2024-01-10T05:48:36;46.25;;;18.80;;
79401;SDS011;68857;47.916;106.940;2024-01-10T05:51:03;46.95;;;18.48;;
79401;SDS011;68857;47.916;106.940;2024-01-10T05:53:29;41.38;;;17.00;;
79401;SDS011;68857;47.916;106.940;2024-01-10T05:55:56;44.92;;;19.17;;
79401;SDS011;68857;47.916;106.940;2024-01-10T05:58:22;42.90;;;16.83;;
79401;SDS011;68857;47.916;106.940;2024-01-10T06:00:48;38.90;;;15.77;;
79401;SDS011;68857;47.916;106.940;2024-01-10T06:03:15;39.35;;;16.38;;
79401;SDS011;68857;47.916;106.940;2024-01-10T06:05:41;36.85;;;15.55;;
79401;SDS011;68857;47.916;106.940;2024-01-10T06:08:07;37.03;;;14.75;;
79401;SDS011;68857;47.916;106.940;2024-01-10T06:10:34;37.78;;;14.27;;
79401;SDS011;68857;47.916;106.940;2024-01-10T06:13:00;35.33;;;13.98;;
79401;SDS011;68857;47.916;106.940;2024-01-10T06:15:27;34.42;;;14.75;;
79401;SDS011;68857;47.916;106.940;2024-01-10T06:17:53;33.65;;;13.52;;
79401;SDS011;68857;47.916;106.940;2024-01-10T06:20:20;33.88;;;11.65;;
79401;SDS011;68857;47.916;106.940;2024-01-10T06:22:46;27.92;;;12.18;;
79401;SDS011;68857;47.916;106.940;2024-01-10T06:25:12;36.20;;;12.90;;
79401;SDS011;68857;47.916;106.940;2024-01-10T06:27:39;30.75;;;11.95;;
79401;SDS011;68857;47.916;106.940;2024-01-10T06:30:06;28.77;;;10.65;;
79401;SDS011;68857;47.916;106.940;2024-01-10T06:32:33;27.90;;;11.75;;
79401;SDS011;68857;47.916;106.940;2024-01-10T06:35:00;29.50;;;11.48;;
79401;SDS011;68857;47.916;106.940;2024-01-10T06:37:27;26.13;;;10.95;;
79401;SDS011;68857;47.916;106.940;2024-01-10T06:39:54;29.08;;;11.40;;
79401;SDS011;68857;47.916;106.940;2024-01-10T06:42:21;22.38;;;9.70;;
79401;SDS011;68857;47.916;106.940;2024-01-10T06:44:48;22.10;;;8.43;;
79401;SDS011;68857;47.916;106.940;2024-01-10T06:47:14;19.90;;;9.60;;
79401;SDS011;68857;47.916;106.940;2024-01-10T06:49:41;21.20;;;8.75;;
79401;SDS011;68857;47.916;106.940;2024-01-10T06:52:07;23.70;;;9.43;;
79401;SDS011;68857;47.916;106.940;2024-01-10T06:54:33;20.98;;;7.47;;
79401;SDS011;68857;47.916;106.940;2024-01-10T06:57:00;18.00;;;7.32;;
79401;SDS011;68857;47.916;106.940;2024-01-10T06:59:26;20.17;;;7.70;;
79401;SDS011;68857;47.916;106.940;2024-01-10T07:01:53;17.83;;;7.03;;
79401;SDS011;68857;47.916;106.940;2024-01-10T07:04:21;19.50;;;7.70;;
79401;SDS011;68857;47.916;106.940;2024-01-10T07:06:49;17.63;;;7.45;;
79401;SDS011;68857;47.916;106.940;2024-01-10T07:09:16;19.88;;;7.03;;
79401;SDS011;68857;47.916;106.940;2024-01-10T07:11:47;22.40;;;6.45;;
79401;SDS011;68857;47.916;106.940;2024-01-10T07:14:14;17.95;;;6.63;;
79401;SDS011;68857;47.916;106.940;2024-01-10T07:16:41;18.45;;;7.15;;
79401;SDS011;68857;47.916;106.940;2024-01-10T07:19:11;19.63;;;6.80;;
79401;SDS011;68857;47.916;106.940;2024-01-10T07:21:40;16.55;;;6.47;;
79401;SDS011;68857;47.916;106.940;2024-01-10T07:29:04;22.80;;;7.43;;
79401;SDS011;68857;47.916;106.940;2024-01-10T07:31:34;21.60;;;8.07;;
79401;SDS011;68857;47.916;106.940;2024-01-10T07:34:00;17.23;;;7.13;;
79401;SDS011;68857;47.916;106.940;2024-01-10T07:36:30;24.42;;;8.98;;
79401;SDS011;68857;47.916;106.940;2024-01-10T07:38:58;22.30;;;8.00;;
79401;SDS011;68857;47.916;106.940;2024-01-10T07:41:25;26.50;;;8.73;;
79401;SDS011;68857;47.916;106.940;2024-01-10T07:43:51;23.42;;;9.55;;
79401;SDS011;68857;47.916;106.940;2024-01-10T07:46:18;24.02;;;7.72;;
79401;SDS011;68857;47.916;106.940;2024-01-10T07:48:44;27.73;;;9.13;;
79401;SDS011;68857;47.916;106.940;2024-01-10T07:51:10;29.13;;;9.93;;
79401;SDS011;68857;47.916;106.940;2024-01-10T07:53:37;28.60;;;8.68;;
79401;SDS011;68857;47.916;106.940;2024-01-10T07:56:03;25.83;;;8.60;;
79401;SDS011;68857;47.916;106.940;2024-01-10T07:58:29;26.35;;;9.63;;
79401;SDS011;68857;47.916;106.940;2024-01-10T08:00:56;25.52;;;9.73;;
79401;SDS011;68857;47.916;106.940;2024-01-10T08:03:22;25.13;;;8.55;;
79401;SDS011;68857;47.916;106.940;2024-01-10T08:05:49;24.27;;;8.40;;
79401;SDS011;68857;47.916;106.940;2024-01-10T08:08:15;25.00;;;9.35;;
79401;SDS011;68857;47.916;106.940;2024-01-10T08:10:42;21.00;;;7.95;;
79401;SDS011;68857;47.916;106.940;2024-01-10T08:13:09;23.58;;;8.63;;
79401;SDS011;68857;47.916;106.940;2024-01-10T08:15:36;22.63;;;7.72;;
79401;SDS011;68857;47.916;106.940;2024-01-10T08:18:02;23.05;;;7.20;;
79401;SDS011;68857;47.916;106.940;2024-01-10T08:20:29;20.77;;;8.65;;
79401;SDS011;68857;47.916;106.940;2024-01-10T08:22:55;18.65;;;8.30;;
79401;SDS011;68857;47.916;106.940;2024-01-10T08:25:22;26.95;;;8.15;;
79401;SDS011;68857;47.916;106.940;2024-01-10T08:27:49;18.70;;;7.35;;
79401;SDS011;68857;47.916;106.940;2024-01-10T08:30:19;18.08;;;7.30;;
79401;SDS011;68857;47.916;106.940;2024-01-10T08:32:47;15.98;;;7.25;;
79401;SDS011;68857;47.916;106.940;2024-01-10T08:35:13;17.02;;;7.60;;
79401;SDS011;68857;47.916;106.940;2024-01-10T08:37:40;20.02;;;7.28;;
79401;SDS011;68857;47.916;106.940;2024-01-10T08:40:10;17.83;;;7.63;;
79401;SDS011;68857;47.916;106.940;2024-01-10T08:42:39;16.33;;;6.75;;
79401;SDS011;68857;47.916;106.940;2024-01-10T08:45:07;19.50;;;7.10;;
79401;SDS011;68857;47.916;106.940;2024-01-10T08:47:35;17.92;;;6.43;;
79401;SDS011;68857;47.916;106.940;2024-01-10T08:50:02;16.60;;;6.22;;
79401;SDS011;68857;47.916;106.940;2024-01-10T08:52:34;23.27;;;7.22;;
79401;SDS011;68857;47.916;106.940;2024-01-10T08:55:03;20.63;;;7.82;;
79401;SDS011;68857;47.916;106.940;2024-01-10T08:57:30;22.60;;;7.93;;
79401;SDS011;68857;47.916;106.940;2024-01-10T08:59:56;14.85;;;7.43;;
79401;SDS011;68857;47.916;106.940;2024-01-10T09:02:23;19.05;;;7.93;;
79401;SDS011;68857;47.916;106.940;2024-01-10T09:04:50;18.20;;;7.00;;
79401;SDS011;68857;47.916;106.940;2024-01-10T09:07:16;15.40;;;7.13;;
79401;SDS011;68857;47.916;106.940;2024-01-10T09:09:43;15.70;;;7.40;;
79401;SDS011;68857;47.916;106.940;2024-01-10T09:12:10;25.08;;;8.02;;
79401;SDS011;68857;47.916;106.940;2024-01-10T09:14:36;19.60;;;8.18;;
79401;SDS011;68857;47.916;106.940;2024-01-10T09:17:02;24.73;;;8.05;;
79401;SDS011;68857;47.916;106.940;2024-01-10T09:19:31;21.42;;;7.70;;
79401;SDS011;68857;47.916;106.940;2024-01-10T09:21:58;18.65;;;7.88;;
79401;SDS011;68857;47.916;106.940;2024-01-10T09:24:24;20.25;;;8.02;;
79401;SDS011;68857;47.916;106.940;2024-01-10T09:26:55;20.63;;;8.13;;
79401;SDS011;68857;47.916;106.940;2024-01-10T09:29:21;21.60;;;8.50;;
79401;SDS011;68857;47.916;106.940;2024-01-10T09:31:47;30.27;;;9.02;;
79401;SDS011;68857;47.916;106.940;2024-01-10T09:34:14;20.70;;;8.07;;
79401;SDS011;68857;47.916;106.940;2024-01-10T09:36:40;23.75;;;7.20;;
79401;SDS011;68857;47.916;106.940;2024-01-10T09:39:07;21.98;;;7.65;;
79401;SDS011;68857;47.916;106.940;2024-01-10T09:41:40;20.70;;;8.15;;
79401;SDS011;68857;47.916;106.940;2024-01-10T09:44:12;21.33;;;8.90;;
79401;SDS011;68857;47.916;106.940;2024-01-10T09:46:38;20.67;;;7.80;;
79401;SDS011;68857;47.916;106.940;2024-01-10T09:49:06;22.27;;;8.93;;
79401;SDS011;68857;47.916;106.940;2024-01-10T09:51:33;18.83;;;8.02;;
79401;SDS011;68857;47.916;106.940;2024-01-10T09:54:00;22.80;;;9.80;;
79401;SDS011;68857;47.916;106.940;2024-01-10T09:56:28;22.38;;;9.65;;
79401;SDS011;68857;47.916;106.940;2024-01-10T09:58:55;24.52;;;10.35;;
79401;SDS011;68857;47.916;106.940;2024-01-10T10:01:21;24.20;;;10.23;;
79401;SDS011;68857;47.916;106.940;2024-01-10T10:03:48;28.27;;;10.70;;
79401;SDS011;68857;47.916;106.940;2024-01-10T10:08:41;25.10;;;10.30;;
79401;SDS011;68857;47.916;106.940;2024-01-10T10:11:11;31.67;;;11.40;;
79401;SDS011;68857;47.916;106.940;2024-01-10T10:13:41;27.45;;;10.50;;
79401;SDS011;68857;47.916;106.940;2024-01-10T10:16:08;31.80;;;12.68;;
79401;SDS011;68857;47.916;106.940;2024-01-10T10:18:40;30.63;;;13.30;;
79401;SDS011;68857;47.916;106.940;2024-01-10T10:21:11;30.52;;;13.32;;
79401;SDS011;68857;47.916;106.940;2024-01-10T10:23:39;29.67;;;12.07;;
79401;SDS011;68857;47.916;106.940;2024-01-10T10:26:15;27.65;;;12.98;;
79401;SDS011;68857;47.916;106.940;2024-01-10T10:28:46;34.88;;;12.95;;
79401;SDS011;68857;47.916;106.940;2024-01-10T10:31:12;32.42;;;12.75;;
79401;SDS011;68857;47.916;106.940;2024-01-10T10:33:39;30.48;;;12.35;;
79401;SDS011;68857;47.916;106.940;2024-01-10T10:38:32;24.98;;;10.50;;
79401;SDS011;68857;47.916;106.940;2024-01-10T10:43:25;27.60;;;11.73;;
79401;SDS011;68857;47.916;106.940;2024-01-10T10:45:52;31.50;;;12.18;;
79401;SDS011;68857;47.916;106.940;2024-01-10T10:48:18;28.95;;;10.95;;
79401;SDS011;68857;47.916;106.940;2024-01-10T10:50:50;29.38;;;11.15;;
79401;SDS011;68857;47.916;106.940;2024-01-10T10:53:22;26.30;;;10.27;;
79401;SDS011;68857;47.916;106.940;2024-01-10T10:55:49;28.00;;;11.48;;
79401;SDS011;68857;47.916;106.940;2024-01-10T10:58:17;28.10;;;12.27;;
79401;SDS011;68857;47.916;106.940;2024-01-10T11:00:43;29.48;;;11.23;;
79401;SDS011;68857;47.916;106.940;2024-01-10T11:03:12;32.72;;;13.50;;
79401;SDS011;68857;47.916;106.940;2024-01-10T11:05:40;28.35;;;12.98;;
79401;SDS011;68857;47.916;106.940;2024-01-10T11:08:07;30.65;;;13.40;;
79401;SDS011;68857;47.916;106.940;2024-01-10T11:10:37;34.58;;;13.43;;
79401;SDS011;68857;47.916;106.940;2024-01-10T11:22:00;32.95;;;13.88;;
79401;SDS011;68857;47.916;106.940;2024-01-10T11:24:30;32.80;;;14.73;;
79401;SDS011;68857;47.916;106.940;2024-01-10T11:27:29;38.20;;;15.80;;
79401;SDS011;68857;47.916;106.940;2024-01-10T11:29:50;42.70;;;16.83;;
79401;SDS011;68857;47.916;106.940;2024-01-10T11:32:17;34.25;;;15.45;;
79401;SDS011;68857;47.916;106.940;2024-01-10T11:37:42;39.20;;;16.67;;
79401;SDS011;68857;47.916;106.940;2024-01-10T11:40:09;41.25;;;16.20;;
79401;SDS011;68857;47.916;106.940;2024-01-10T11:42:45;37.58;;;15.77;;
79401;SDS011;68857;47.916;106.940;2024-01-10T11:47:59;37.90;;;17.30;;
79401;SDS011;68857;47.916;106.940;2024-01-10T11:50:26;43.15;;;17.80;;
79401;SDS011;68857;47.916;106.940;2024-01-10T11:52:53;43.67;;;18.02;;
79401;SDS011;68857;47.916;106.940;2024-01-10T11:58:08;44.45;;;17.63;;
79401;SDS011;68857;47.916;106.940;2024-01-10T12:00:35;48.38;;;19.23;;
79401;SDS011;68857;47.916;106.940;2024-01-10T12:03:01;42.90;;;19.63;;
79401;SDS011;68857;47.916;106.940;2024-01-10T12:05:28;48.35;;;17.98;;
79401;SDS011;68857;47.916;106.940;2024-01-10T12:07:55;47.90;;;21.90;;
79401;SDS011;68857;47.916;106.940;2024-01-10T12:10:25;42.85;;;18.58;;
79401;SDS011;68857;47.916;106.940;2024-01-10T12:12:52;41.47;;;17.58;;
79401;SDS011;68857;47.916;106.940;2024-01-10T12:15:20;53.72;;;19.63;;
79401;SDS011;68857;47.916;106.940;2024-01-10T12:17:46;40.90;;;18.60;;
79401;SDS011;68857;47.916;106.940;2024-01-10T12:20:13;44.40;;;19.42;;
79401;SDS011;68857;47.916;106.940;2024-01-10T12:22:39;45.33;;;18.55;;
79401;SDS011;68857;47.916;106.940;2024-01-10T12:25:08;43.15;;;18.63;;
79401;SDS011;68857;47.916;106.940;2024-01-10T12:27:35;42.33;;;19.13;;
79401;SDS011;68857;47.916;106.940;2024-01-10T12:30:01;47.30;;;19.73;;
79401;SDS011;68857;47.916;106.940;2024-01-10T12:32:28;46.47;;;19.63;;
79401;SDS011;68857;47.916;106.940;2024-01-10T12:34:57;52.17;;;20.52;;
79401;SDS011;68857;47.916;106.940;2024-01-10T12:37:24;42.70;;;18.75;;
79401;SDS011;68857;47.916;106.940;2024-01-10T12:39:50;48.35;;;20.33;;
79401;SDS011;68857;47.916;106.940;2024-01-10T12:42:17;50.63;;;21.85;;
79401;SDS011;68857;47.916;106.940;2024-01-10T12:44:44;46.35;;;19.48;;
79401;SDS011;68857;47.916;106.940;2024-01-10T12:47:18;47.35;;;19.13;;
79401;SDS011;68857;47.916;106.940;2024-01-10T12:49:45;50.17;;;21.98;;
79401;SDS011;68857;47.916;106.940;2024-01-10T12:52:12;49.58;;;21.50;;
79401;SDS011;68857;47.916;106.940;2024-01-10T12:57:04;53.53;;;20.52;;
79401;SDS011;68857;47.916;106.940;2024-01-10T12:59:32;49.05;;;18.63;;
79401;SDS011;68857;47.916;106.940;2024-01-10T13:01:59;49.45;;;20.92;;
79401;SDS011;68857;47.916;106.940;2024-01-10T13:04:25;56.50;;;22.75;;
79401;SDS011;68857;47.916;106.940;2024-01-10T13:06:52;52.97;;;25.85;;
79401;SDS011;68857;47.916;106.940;2024-01-10T13:09:18;57.28;;;24.92;;
79401;SDS011;68857;47.916;106.940;2024-01-10T13:11:45;60.28;;;26.02;;
79401;SDS011;68857;47.916;106.940;2024-01-10T13:14:12;58.30;;;24.05;;
79401;SDS011;68857;47.916;106.940;2024-01-10T13:16:38;63.30;;;27.70;;
79401;SDS011;68857;47.916;106.940;2024-01-10T13:19:04;68.63;;;28.55;;
79401;SDS011;68857;47.916;106.940;2024-01-10T13:21:31;63.10;;;26.67;;
79401;SDS011;68857;47.916;106.940;2024-01-10T13:23:57;75.93;;;29.33;;
79401;SDS011;68857;47.916;106.940;2024-01-10T13:26:24;70.53;;;29.08;;
79401;SDS011;68857;47.916;106.940;2024-01-10T13:28:50;73.32;;;29.33;;
79401;SDS011;68857;47.916;106.940;2024-01-10T13:31:16;76.60;;;32.05;;
79401;SDS011;68857;47.916;106.940;2024-01-10T13:33:43;82.07;;;35.47;;
79401;SDS011;68857;47.916;106.940;2024-01-10T13:36:09;83.35;;;34.33;;
79401;SDS011;68857;47.916;106.940;2024-01-10T13:38:36;83.90;;;35.33;;
79401;SDS011;68857;47.916;106.940;2024-01-10T13:41:02;86.88;;;37.45;;
79401;SDS011;68857;47.916;106.940;2024-01-10T13:43:30;95.30;;;39.45;;
79401;SDS011;68857;47.916;106.940;2024-01-10T13:45:57;100.22;;;41.38;;
79401;SDS011;68857;47.916;106.940;2024-01-10T13:48:23;110.82;;;45.03;;
79401;SDS011;68857;47.916;106.940;2024-01-10T13:50:49;114.13;;;45.10;;
79401;SDS011;68857;47.916;106.940;2024-01-10T13:53:16;123.28;;;45.80;;
79401;SDS011;68857;47.916;106.940;2024-01-10T13:55:42;117.75;;;47.33;;
79401;SDS011;68857;47.916;106.940;2024-01-10T13:58:09;130.90;;;52.95;;
79401;SDS011;68857;47.916;106.940;2024-01-10T14:00:35;123.53;;;53.25;;
79401;SDS011;68857;47.916;106.940;2024-01-10T14:03:03;135.05;;;55.05;;
79401;SDS011;68857;47.916;106.940;2024-01-10T14:05:30;143.13;;;56.35;;
79401;SDS011;68857;47.916;106.940;2024-01-10T14:07:56;147.85;;;59.55;;
79401;SDS011;68857;47.916;106.940;2024-01-10T14:10:22;146.30;;;58.45;;
79401;SDS011;68857;47.916;106.940;2024-01-10T14:12:49;152.10;;;59.03;;
79401;SDS011;68857;47.916;106.940;2024-01-10T14:15:15;155.70;;;61.33;;
79401;SDS011;68857;47.916;106.940;2024-01-10T14:17:42;164.00;;;65.00;;
79401;SDS011;68857;47.916;106.940;2024-01-10T14:20:08;151.60;;;58.65;;
79401;SDS011;68857;47.916;106.940;2024-01-10T14:22:35;138.35;;;56.45;;
79401;SDS011;68857;47.916;106.940;2024-01-10T14:25:02;141.45;;;56.22;;
79401;SDS011;68857;47.916;106.940;2024-01-10T14:27:30;138.80;;;55.42;;